Time;durP1;ratioP1;P1;durP2;ratioP2;P2;SDS_P1;SDS_P2;PMS_P1;PMS_P2;Temp;Humidity;BMP_temperature;BMP_pressure;BME280_temperature;BME280_humidity;BME280_pressure;Samples;Min_cycle;Max_cycle;Signal;HPM_P1;HPM_P2
2021/11/07 00:00:06;;;;;;;43.47;5.00;;;;;15.90;100812.00;;;;5068899;28;20054;-76
2021/11/07 00:05:47;;;;;;;38.47;5.85;;;;;15.90;100803.00;;;;5035695;28;20052;-75
2021/11/07 00:10:50;;;;;;;30.63;4.38;;;;;15.90;100799.00;;;;5069138;28;20044;-77
2021/11/07 00:13:23;;;;;;;48.78;5.97;;;;;15.90;100807.00;;;;5069401;28;20044;-76
2021/11/07 00:15:56;;;;;;;758.65;64.35;;;;;15.90;100801.00;;;;5069049;28;20048;-76
2021/11/07 00:18:38;;;;;;;57.35;10.35;;;;;15.90;100817.00;;;;5050937;28;20665;-76
2021/11/07 00:21:22;;;;;;;;;;;;;16.00;100822.00;;;;5069251;28;20563;-76
2021/11/07 00:24:10;;;;;;;36.63;4.40;;;;;15.90;100812.00;;;;5068816;28;19920;-76
2021/11/07 00:37:40;;;;;;;37.88;4.07;;;;;15.90;100846.00;;;;5067735;28;20106;-76
2021/11/07 00:40:32;;;;;;;35.33;3.75;;;;;15.90;100852.00;;;;5064964;28;20396;-78
2021/11/07 00:43:07;;;;;;;;;;;;;15.90;100854.00;;;;5067001;28;20040;-75
2021/11/07 00:48:28;;;;;;;39.13;4.38;;;;;15.90;100864.00;;;;5067350;28;20556;-75
2021/11/07 00:56:41;;;;;;;28.83;4.65;;;;;15.90;100875.00;;;;5066978;28;20040;-75
2021/11/07 01:02:23;;;;;;;26.55;3.92;;;;;16.00;100875.00;;;;5067257;28;20044;-76
2021/11/07 01:04:53;;;;;;;32.10;3.90;;;;;15.90;100866.00;;;;5056842;28;20521;-76
2021/11/07 01:07:24;;;;;;;27.45;4.10;;;;;15.90;100862.00;;;;5067650;28;20498;-76
2021/11/07 01:09:55;;;;;;;22.20;3.10;;;;;15.90;100877.00;;;;5068206;28;20094;-75
2021/11/07 01:12:26;;;;;;;27.23;4.10;;;;;15.90;100858.00;;;;5050845;28;20037;-74
2021/11/07 01:14:58;;;;;;;26.93;3.70;;;;;15.90;100844.00;;;;5067878;28;20036;-77
2021/11/07 01:17:28;;;;;;;32.10;4.00;;;;;15.90;100873.00;;;;5068183;28;20037;-75
2021/11/07 01:19:58;;;;;;;24.08;4.20;;;;;15.90;100854.00;;;;5067127;28;20067;-76
2021/11/07 01:22:42;;;;;;;21.35;3.15;;;;;15.80;100849.00;;;;5049868;28;20052;-75
2021/11/07 01:25:12;;;;;;;28.40;4.10;;;;;15.80;100845.00;;;;5067863;28;20041;-78
2021/11/07 01:27:43;;;;;;;29.58;4.45;;;;;15.80;100858.00;;;;5067926;28;20924;-76
2021/11/07 01:30:20;;;;;;;30.65;3.63;;;;;15.70;100865.00;;;;5067462;28;20113;-76
2021/11/07 01:33:00;;;;;;;28.10;4.32;;;;;15.70;100865.00;;;;5067302;28;20514;-75
2021/11/07 01:35:42;;;;;;;32.30;4.15;;;;;15.70;100852.00;;;;5066105;28;20052;-77
2021/11/07 01:38:23;;;;;;;37.95;4.15;;;;;15.70;100864.00;;;;5066144;28;20037;-77
2021/11/07 01:41:17;;;;;;;19.92;3.90;;;;;15.60;100848.00;;;;5066304;28;20036;-77
2021/11/07 01:43:47;;;;;;;38.53;4.63;;;;;15.60;100844.00;;;;5064737;28;20048;-76
2021/11/07 01:46:27;;;;;;;25.92;3.80;;;;;15.60;100856.00;;;;5066578;28;20098;-76
2021/11/07 01:49:04;;;;;;;37.00;5.13;;;;;15.60;100876.00;;;;5048602;28;20060;-75
2021/11/07 01:51:34;;;;;;;25.23;4.30;;;;;15.60;100870.00;;;;5067248;28;20033;-76
2021/11/07 01:54:19;;;;;;;30.33;3.88;;;;;15.60;100853.00;;;;5067239;28;20036;-75
2021/11/07 01:56:50;;;;;;;39.97;4.93;;;;;15.60;100872.00;;;;5067064;28;20044;-75
2021/11/07 01:59:22;;;;;;;22.25;4.05;;;;;15.60;100873.00;;;;5066838;28;20048;-75
2021/11/07 02:01:59;;;;;;;30.05;4.45;;;;;15.60;100884.00;;;;5067319;28;20052;-76
2021/11/07 02:04:29;;;;;;;31.77;4.70;;;;;15.60;100869.00;;;;5067274;28;20133;-76
2021/11/07 02:06:59;;;;;;;34.25;4.40;;;;;15.60;100864.00;;;;5067471;28;20568;-76
2021/11/07 02:09:28;;;;;;;39.35;5.15;;;;;15.60;100869.00;;;;5067329;28;20041;-76
2021/11/07 02:11:58;;;;;;;30.83;4.63;;;;;15.60;100865.00;;;;5067026;28;20036;-76
2021/11/07 02:14:28;;;;;;;35.63;4.95;;;;;15.60;100859.00;;;;5067029;28;20044;-76
2021/11/07 02:16:58;;;;;;;41.03;5.18;;;;;15.60;100845.00;;;;5066411;28;20051;-76
2021/11/07 02:19:28;;;;;;;42.50;5.22;;;;;15.60;100868.00;;;;5066913;28;20054;-76
2021/11/07 02:21:58;;;;;;;37.03;5.03;;;;;15.60;100856.00;;;;5067228;28;20048;-76
2021/11/07 02:24:28;;;;;;;30.45;4.70;;;;;15.60;100845.00;;;;5066763;28;20044;-76
2021/11/07 02:27:01;;;;;;;428.98;31.95;;;;;15.50;100843.00;;;;5066927;28;20044;-76
2021/11/07 02:29:33;;;;;;;46.30;7.03;;;;;15.60;100827.00;;;;5066610;28;20051;-75
2021/11/07 02:32:05;;;;;;;44.85;5.15;;;;;15.60;100816.00;;;;5066553;28;20487;-75
2021/11/07 02:34:35;;;;;;;39.92;5.82;;;;;15.50;100815.00;;;;5067606;28;20056;-76
2021/11/07 02:37:05;;;;;;;39.42;5.03;;;;;15.50;100827.00;;;;5066334;28;20088;-76
2021/11/07 02:39:35;;;;;;;35.50;5.43;;;;;15.50;100830.00;;;;5066693;28;20106;-75
2021/11/07 02:42:05;;;;;;;30.05;4.63;;;;;15.50;100815.00;;;;5066361;28;20056;-77
2021/11/07 02:44:38;;;;;;;41.33;5.23;;;;;15.50;100811.00;;;;5067199;28;20044;-76
2021/11/07 02:47:10;;;;;;;41.92;4.70;;;;;15.50;100813.00;;;;5066871;28;20040;-75
2021/11/07 02:49:42;;;;;;;40.88;5.40;;;;;15.50;100797.00;;;;5066824;28;20040;-75
2021/11/07 02:52:14;;;;;;;34.38;5.00;;;;;15.50;100808.00;;;;5066637;28;20052;-76
2021/11/07 02:54:45;;;;;;;40.42;5.28;;;;;15.50;100785.00;;;;5067001;28;20044;-74
2021/11/07 02:57:18;;;;;;;35.03;5.07;;;;;15.50;100797.00;;;;5067315;28;20143;-75
2021/11/07 02:59:59;;;;;;;39.40;4.65;;;;;15.50;100796.00;;;;5066819;28;20116;-75
2021/11/07 03:02:30;;;;;;;31.45;4.95;;;;;15.50;100792.00;;;;5048469;28;20040;-77
2021/11/07 03:05:05;;;;;;;38.87;5.43;;;;;15.50;100783.00;;;;5066413;28;20072;-75
2021/11/07 03:07:35;;;;;;;39.55;6.38;;;;;15.50;100802.00;;;;5066506;28;20052;-75
2021/11/07 03:10:06;;;;;;;35.78;4.60;;;;;15.50;100779.00;;;;5065938;28;20133;-77
2021/11/07 03:12:37;;;;;;;;;;;;;15.50;100793.00;;;;5067151;28;20045;-75
2021/11/07 03:15:11;;;;;;;41.05;4.95;;;;;15.50;100776.00;;;;5048735;28;19924;-76
2021/11/07 03:17:42;;;;;;;32.28;5.10;;;;;15.50;100783.00;;;;5066251;28;20067;-75
2021/11/07 03:20:14;;;;;;;30.17;5.20;;;;;15.50;100774.00;;;;5065751;28;20040;-77
2021/11/07 03:22:44;;;;;;;30.33;4.35;;;;;15.50;100777.00;;;;5066644;28;20495;-75
2021/11/07 03:25:14;;;;;;;45.33;5.35;;;;;15.50;100772.00;;;;5048950;28;20170;-75
2021/11/07 03:27:45;;;;;;;27.48;3.92;;;;;15.50;100770.00;;;;5066269;28;20144;-75
2021/11/07 03:30:36;;;;;;;928.17;100.93;;;;;15.50;100781.00;;;;5066490;28;20053;-76
2021/11/07 03:33:16;;;;;;;129.52;35.55;;;;;15.50;100766.00;;;;5066740;28;20094;-75
2021/11/07 03:35:47;;;;;;;99.50;18.80;;;;;15.50;100782.00;;;;5066056;28;20041;-76
2021/11/07 03:38:16;;;;;;;171.30;20.85;;;;;15.50;100776.00;;;;5066380;28;20044;-75
2021/11/07 03:40:46;;;;;;;285.90;39.53;;;;;15.50;100773.00;;;;5065985;28;20392;-75
2021/11/07 03:43:15;;;;;;;31.60;5.10;;;;;15.50;100747.00;;;;5065984;28;20086;-76
2021/11/07 03:45:46;;;;;;;29.50;4.82;;;;;15.50;100764.00;;;;5070011;28;20072;-76
2021/11/07 03:48:15;;;;;;;117.30;81.85;;;;;15.50;100742.00;;;;5069287;28;20047;-76
2021/11/07 03:50:45;;;;;;;39.83;35.92;;;;;15.50;100732.00;;;;5070002;28;20064;-75
2021/11/07 03:53:16;;;;;;;7.13;2.70;;;;;15.50;100734.00;;;;5069571;28;20040;-76
2021/11/07 03:55:46;;;;;;;26.20;4.22;;;;;15.50;100736.00;;;;5069777;28;20305;-76
2021/11/07 03:58:16;;;;;;;40.92;5.95;;;;;15.50;100750.00;;;;5069882;28;20139;-76
2021/11/07 04:00:46;;;;;;;34.88;5.10;;;;;15.50;100739.00;;;;5069089;28;20052;-76
2021/11/07 04:03:16;;;;;;;23.98;3.63;;;;;15.50;100744.00;;;;5069627;28;20046;-76
2021/11/07 04:05:45;;;;;;;19.23;3.45;;;;;15.50;100725.00;;;;5069151;28;20040;-75
2021/11/07 04:08:15;;;;;;;38.25;5.45;;;;;15.50;100719.00;;;;5069558;28;20132;-76
2021/11/07 04:10:45;;;;;;;32.05;5.15;;;;;15.50;100729.00;;;;5069628;28;20118;-76
2021/11/07 04:13:15;;;;;;;26.55;3.58;;;;;15.50;100701.00;;;;5069149;28;20095;-76
2021/11/07 04:15:45;;;;;;;379.13;40.67;;;;;15.50;100727.00;;;;5068796;28;20041;-76
2021/11/07 04:18:14;;;;;;;375.45;23.65;;;;;15.50;100735.00;;;;5069574;28;20045;-75
2021/11/07 04:20:44;;;;;;;28.40;4.32;;;;;15.50;100727.00;;;;5069353;28;20125;-76
2021/11/07 04:23:14;;;;;;;31.63;4.13;;;;;15.50;100720.00;;;;5069296;28;20044;-75
2021/11/07 04:25:43;;;;;;;24.23;3.72;;;;;15.50;100710.00;;;;5069587;28;20097;-75
2021/11/07 04:28:14;;;;;;;255.32;136.85;;;;;15.50;100712.00;;;;5068698;28;20044;-75
2021/11/07 04:30:45;;;;;;;144.15;11.15;;;;;15.50;100702.00;;;;5068972;28;20072;-75
2021/11/07 04:33:18;;;;;;;29.73;4.97;;;;;15.50;100692.00;;;;5068947;28;20048;-75
2021/11/07 04:35:48;;;;;;;29.13;4.63;;;;;15.40;100718.00;;;;5068851;28;20040;-76
2021/11/07 04:38:17;;;;;;;760.67;105.28;;;;;15.40;100724.00;;;;5051541;28;20046;-76
2021/11/07 04:40:47;;;;;;;36.75;4.05;;;;;15.40;100714.00;;;;5068665;28;20058;-76
2021/11/07 04:43:17;;;;;;;15.40;3.03;;;;;15.40;100712.00;;;;5068474;28;20423;-75
2021/11/07 04:45:47;;;;;;;14.13;10.98;;;;;15.40;100695.00;;;;5068746;28;20047;-76
2021/11/07 04:48:17;;;;;;;25.90;3.88;;;;;15.40;100691.00;;;;5068614;28;20419;-75
2021/11/07 04:50:47;;;;;;;23.48;4.07;;;;;15.30;100704.00;;;;5068076;28;20518;-76
2021/11/07 04:53:22;;;;;;;30.02;4.82;;;;;15.30;100681.00;;;;5068612;28;20485;-76
2021/11/07 04:55:52;;;;;;;565.63;145.15;;;;;15.30;100686.00;;;;5068765;28;20044;-74
2021/11/07 04:58:22;;;;;;;27.63;4.22;;;;;15.30;100708.00;;;;5068742;28;20072;-76
2021/11/07 05:00:52;;;;;;;93.85;19.40;;;;;15.30;100711.00;;;;5068123;28;20503;-76
2021/11/07 05:03:21;;;;;;;32.22;4.38;;;;;15.30;100700.00;;;;5068345;28;20078;-75
2021/11/07 05:05:51;;;;;;;29.13;4.65;;;;;15.40;100702.00;;;;5067969;28;20045;-75
2021/11/07 05:08:21;;;;;;;738.72;104.38;;;;;15.30;100693.00;;;;5068918;28;20068;-76
2021/11/07 05:10:50;;;;;;;29.58;4.22;;;;;15.30;100691.00;;;;5068442;28;20064;-76
2021/11/07 05:13:21;;;;;;;1999.90;321.60;;;;;15.20;100685.00;;;;5050062;28;20070;-75
2021/11/07 05:15:50;;;;;;;918.63;154.60;;;;;15.30;100708.00;;;;5068343;28;20127;-76
2021/11/07 05:18:20;;;;;;;1060.85;133.45;;;;;15.20;100694.00;;;;5068450;28;20051;-76
2021/11/07 05:20:50;;;;;;;1981.43;254.68;;;;;15.10;100691.00;;;;5067976;28;20056;-76
2021/11/07 05:23:19;;;;;;;36.70;4.85;;;;;15.10;100703.00;;;;5049874;28;20584;-76
2021/11/07 05:25:49;;;;;;;24.90;3.50;;;;;15.10;100696.00;;;;5068022;28;20083;-76
2021/11/07 05:28:18;;;;;;;1699.30;208.40;;;;;15.00;100695.00;;;;5067482;28;20060;-76
2021/11/07 05:30:48;;;;;;;573.03;43.38;;;;;15.20;100680.00;;;;5067478;28;20091;-75
2021/11/07 05:33:18;;;;;;;716.30;164.13;;;;;15.10;100683.00;;;;5049830;28;20056;-76
2021/11/07 05:35:47;;;;;;;1010.75;154.05;;;;;15.10;100685.00;;;;5067846;28;20618;-76
2021/11/07 05:38:19;;;;;;;1247.43;146.57;;;;;15.00;100673.00;;;;5067599;28;20053;-76
2021/11/07 05:40:49;;;;;;;28.83;4.05;;;;;15.00;100688.00;;;;5067553;28;20041;-76
2021/11/07 05:43:20;;;;;;;602.85;180.65;;;;;15.00;100677.00;;;;5066781;28;20589;-75
2021/11/07 05:45:51;;;;;;;1069.38;292.27;;;;;15.00;100676.00;;;;5067404;28;20446;-76
2021/11/07 05:48:21;;;;;;;1538.40;323.02;;;;;15.00;100689.00;;;;5067526;28;20427;-75
2021/11/07 05:50:50;;;;;;;1380.30;313.02;;;;;15.00;100654.00;;;;5067291;28;20044;-75
2021/11/07 05:53:20;;;;;;;577.22;263.60;;;;;15.00;100662.00;;;;5067169;28;20037;-75
2021/11/07 05:55:50;;;;;;;938.72;308.05;;;;;15.00;100671.00;;;;5066732;28;20628;-76
2021/11/07 05:58:20;;;;;;;1038.82;267.88;;;;;14.90;100658.00;;;;5067777;28;20052;-76
2021/11/07 06:00:49;;;;;;;200.32;13.75;;;;;14.90;100659.00;;;;5067498;28;20048;-75
2021/11/07 06:03:20;;;;;;;62.00;43.42;;;;;14.90;100655.00;;;;5067789;28;20498;-76
2021/11/07 06:05:50;;;;;;;579.63;75.47;;;;;14.90;100673.00;;;;5067260;28;20066;-76
2021/11/07 06:08:20;;;;;;;1999.90;307.42;;;;;14.90;100659.00;;;;5066693;28;20541;-75
2021/11/07 06:10:50;;;;;;;786.20;166.20;;;;;14.90;100655.00;;;;5067092;28;20565;-76
2021/11/07 06:13:19;;;;;;;1825.10;143.00;;;;;14.90;100679.00;;;;5049118;28;20131;-76
2021/11/07 06:15:49;;;;;;;775.17;360.00;;;;;15.00;100674.00;;;;5066725;28;20495;-76
2021/11/07 06:18:19;;;;;;;874.90;136.98;;;;;14.90;100671.00;;;;5066496;28;20132;-76
2021/11/07 06:20:49;;;;;;;536.35;82.47;;;;;14.90;100673.00;;;;5066454;28;20541;-76
2021/11/07 06:23:19;;;;;;;1292.57;565.78;;;;;14.90;100649.00;;;;5066856;28;20048;-76
2021/11/07 06:25:48;;;;;;;1127.53;250.98;;;;;14.90;100664.00;;;;5067151;28;20072;-75
2021/11/07 06:28:20;;;;;;;428.80;89.53;;;;;14.90;100664.00;;;;5067417;28;20606;-76
2021/11/07 06:30:50;;;;;;;;;;;;;14.90;100668.00;;;;5066960;28;20660;-75
2021/11/07 06:33:20;;;;;;;1930.72;235.88;;;;;14.90;100671.00;;;;5066637;28;20387;-76
2021/11/07 06:35:50;;;;;;;1999.90;167.82;;;;;15.00;100652.00;;;;5066562;28;20040;-75
2021/11/07 06:38:19;;;;;;;1402.15;185.38;;;;;15.00;100657.00;;;;5066667;28;20083;-76
2021/11/07 06:40:49;;;;;;;1850.97;248.63;;;;;15.00;100668.00;;;;5066278;28;20040;-75
2021/11/07 06:43:19;;;;;;;654.88;130.43;;;;;15.00;100662.00;;;;5067153;28;20037;-76
2021/11/07 06:45:49;;;;;;;1239.32;68.70;;;;;15.00;100664.00;;;;5066337;28;20075;-76
2021/11/07 06:48:18;;;;;;;1163.07;327.85;;;;;15.00;100648.00;;;;5048956;28;20060;-76
2021/11/07 06:50:48;;;;;;;1436.97;266.95;;;;;15.00;100657.00;;;;5066726;28;20101;-76
2021/11/07 06:53:17;;;;;;;1598.65;675.60;;;;;15.00;100655.00;;;;5049303;28;20049;-76
2021/11/07 06:55:48;;;;;;;465.77;57.72;;;;;15.00;100663.00;;;;5066964;28;20064;-76
2021/11/07 06:58:18;;;;;;;326.33;31.97;;;;;14.90;100659.00;;;;5066108;28;20114;-75
2021/11/07 07:00:48;;;;;;;866.47;376.85;;;;;14.90;100641.00;;;;5065971;28;20773;-76
2021/11/07 07:03:18;;;;;;;496.80;185.80;;;;;14.90;100652.00;;;;5066769;28;20059;-76
2021/11/07 07:05:49;;;;;;;986.95;185.75;;;;;14.90;100670.00;;;;5066214;28;20348;-76
2021/11/07 07:08:22;;;;;;;246.43;19.65;;;;;14.90;100655.00;;;;5066631;28;20136;-75
2021/11/07 07:10:57;;;;;;;1633.50;247.85;;;;;14.90;100652.00;;;;5066566;28;20044;-76
2021/11/07 07:13:43;;;;;;;985.45;75.20;;;;;15.00;100661.00;;;;5066369;28;20041;-76
2021/11/07 07:16:30;;;;;;;1257.38;320.40;;;;;15.00;100655.00;;;;5066817;28;20063;-76
2021/11/07 07:19:21;;;;;;;254.40;63.83;;;;;15.00;100657.00;;;;5067218;28;20560;-76
2021/11/07 07:25:01;;;;;;;1522.55;368.88;;;;;15.00;100678.00;;;;5070149;28;20055;-76
2021/11/07 07:33:40;;;;;;;1999.90;999.90;;;;;15.00;100657.00;;;;5070009;28;20037;-76
2021/11/07 07:36:00;;;;;;;78.05;25.75;;;;;15.00;100661.00;;;;5066950;28;20052;-76
2021/11/07 07:38:29;;;;;;;1178.65;261.55;;;;;15.10;100640.00;;;;5069969;28;20515;-77
2021/11/07 07:40:59;;;;;;;31.95;15.20;;;;;15.00;100657.00;;;;5070183;28;20055;-76
2021/11/07 07:43:30;;;;;;;1999.90;555.83;;;;;15.10;100655.00;;;;5070390;28;20098;-76
2021/11/07 07:46:08;;;;;;;187.55;119.05;;;;;15.00;100665.00;;;;5069459;28;20537;-76
2021/11/07 07:48:44;;;;;;;663.05;163.60;;;;;15.00;100652.00;;;;5069887;28;20051;-75
2021/11/07 07:51:18;;;;;;;1363.32;206.32;;;;;15.00;100670.00;;;;5069543;28;20214;-76
2021/11/07 07:53:48;;;;;;;282.00;73.80;;;;;15.00;100652.00;;;;5069346;28;20044;-76
2021/11/07 07:56:17;;;;;;;862.80;224.75;;;;;15.00;100672.00;;;;5069761;28;20079;-76
2021/11/07 07:58:47;;;;;;;1086.80;178.02;;;;;15.00;100682.00;;;;5070129;28;20044;-76
2021/11/07 08:01:16;;;;;;;1276.50;537.67;;;;;15.10;100667.00;;;;5069243;28;20076;-76
2021/11/07 08:03:46;;;;;;;1722.10;269.40;;;;;15.10;100662.00;;;;5069809;28;20114;-75
2021/11/07 08:06:15;;;;;;;1333.65;179.82;;;;;15.10;100664.00;;;;5069549;28;20072;-75
2021/11/07 08:08:46;;;;;;;214.95;66.78;;;;;15.10;100675.00;;;;5070001;28;20066;-76
2021/11/07 08:11:18;;;;;;;750.65;50.00;;;;;15.00;100663.00;;;;5069289;28;20040;-76
2021/11/07 08:13:50;;;;;;;431.90;50.38;;;;;15.00;100683.00;;;;5069289;28;20049;-76
2021/11/07 08:16:21;;;;;;;48.33;4.25;;;;;15.00;100687.00;;;;5069453;28;20384;-75
2021/11/07 08:18:52;;;;;;;1507.60;553.50;;;;;15.00;100676.00;;;;5068660;28;20037;-75
2021/11/07 08:21:23;;;;;;;1999.90;212.15;;;;;15.10;100681.00;;;;5069157;28;20574;-75
2021/11/07 08:23:54;;;;;;;497.63;40.92;;;;;15.10;100685.00;;;;5050608;28;20087;-75
2021/11/07 08:26:24;;;;;;;707.55;190.98;;;;;15.10;100662.00;;;;5069431;28;20090;-75
2021/11/07 08:28:54;;;;;;;282.52;101.20;;;;;15.10;100687.00;;;;5050962;28;20041;-75
2021/11/07 08:31:26;;;;;;;1454.15;365.63;;;;;15.10;100697.00;;;;5068656;28;20044;-75
2021/11/07 08:33:57;;;;;;;1262.03;205.73;;;;;15.10;100691.00;;;;5069726;28;20036;-75
2021/11/07 08:36:36;;;;;;;837.05;184.45;;;;;15.10;100678.00;;;;5068508;28;20150;-76
2021/11/07 08:39:18;;;;;;;384.88;79.78;;;;;15.10;100690.00;;;;5068427;28;20037;-76
2021/11/07 08:41:56;;;;;;;1586.93;198.15;;;;;15.20;100690.00;;;;5068524;28;20496;-75
2021/11/07 09:09:38;;;;;;;82.22;62.38;;;;;15.40;100721.00;;;;5045199;28;20044;-75
2021/11/07 09:12:10;;;;;;;399.58;177.35;;;;;15.40;100717.00;;;;5068211;28;20049;-75
2021/11/07 09:14:42;;;;;;;147.05;14.10;;;;;15.50;100726.00;;;;5067928;28;20407;-75
2021/11/07 09:17:15;;;;;;;441.02;161.70;;;;;15.50;100731.00;;;;5033801;28;20415;-76
2021/11/07 09:19:48;;;;;;;1347.07;352.63;;;;;15.50;100728.00;;;;5067805;28;20051;-76
2021/11/07 09:27:57;;;;;;;24.80;8.52;;;;;15.60;100741.00;;;;5067895;28;20133;-74
2021/11/07 09:30:40;;;;;;;841.83;254.63;;;;;15.70;100754.00;;;;5067257;28;20049;-76
2021/11/07 09:33:20;;;;;;;26.35;23.50;;;;;15.70;100756.00;;;;5067613;28;20048;-73
2021/11/07 09:38:47;;;;;;;237.63;112.55;;;;;15.80;100748.00;;;;5067897;28;20076;-75
2021/11/07 09:44:07;;;;;;;258.55;20.58;;;;;15.90;100764.00;;;;5067343;28;20041;-74
2021/11/07 09:46:44;;;;;;;169.23;115.75;;;;;16.00;100753.00;;;;5067453;28;20045;-75
2021/11/07 09:49:22;;;;;;;68.93;15.23;;;;;16.00;100775.00;;;;5067546;28;20443;-74
2021/11/07 09:52:09;;;;;;;1482.20;149.90;;;;;16.00;100765.00;;;;5068419;28;20519;-75
2021/11/07 09:54:43;;;;;;;990.22;72.55;;;;;16.10;100772.00;;;;5067454;28;20343;-75
2021/11/07 09:57:20;;;;;;;1188.53;142.50;;;;;16.20;100757.00;;;;5067072;28;20718;-74
2021/11/07 09:59:58;;;;;;;1341.57;212.85;;;;;16.20;100767.00;;;;5067226;28;20048;-74
2021/11/07 10:02:39;;;;;;;1066.70;124.85;;;;;16.20;100762.00;;;;5067090;28;20060;-74
2021/11/07 10:05:09;;;;;;;;;;;;;16.30;100783.00;;;;5068125;28;20500;-75
2021/11/07 10:07:41;;;;;;;1999.90;352.77;;;;;16.20;100771.00;;;;5066776;28;20007;-75
2021/11/07 10:10:23;;;;;;;1230.75;84.93;;;;;16.20;100784.00;;;;5067452;28;20048;-74
2021/11/07 10:12:56;;;;;;;1999.90;214.25;;;;;16.30;100770.00;;;;5067368;28;20036;-75
2021/11/07 10:15:30;;;;;;;1999.90;999.90;;;;;16.40;100785.00;;;;5067025;28;20049;-75
2021/11/07 10:18:18;;;;;;;724.67;129.68;;;;;16.40;100776.00;;;;5067164;28;20111;-75
2021/11/07 10:20:53;;;;;;;768.88;86.90;;;;;16.50;100785.00;;;;5066755;28;20055;-74
2021/11/07 10:23:38;;;;;;;866.50;73.15;;;;;16.50;100784.00;;;;5067226;28;20048;-75
2021/11/07 10:28:49;;;;;;;118.60;53.65;;;;;16.60;100795.00;;;;5066507;28;20044;-74
2021/11/07 10:31:30;;;;;;;1952.40;163.65;;;;;16.60;100804.00;;;;5066682;28;20048;-74
2021/11/07 10:53:43;;;;;;;461.30;149.02;;;;;17.20;100809.00;;;;5068747;28;20053;-74
2021/11/07 10:56:13;;;;;;;219.90;34.63;;;;;17.30;100812.00;;;;5070833;28;20048;-74
2021/11/07 10:58:48;;;;;;;1870.97;184.55;;;;;17.50;100798.00;;;;5070771;28;20044;-74
2021/11/07 11:01:21;;;;;;;917.13;102.53;;;;;17.50;100795.00;;;;5070297;28;20507;-74
2021/11/07 11:03:54;;;;;;;1362.97;114.53;;;;;17.50;100814.00;;;;5070313;28;20036;-74
2021/11/07 11:06:24;;;;;;;1087.18;84.13;;;;;17.70;100790.00;;;;5070714;28;20498;-73
2021/11/07 11:09:01;;;;;;;1999.90;423.13;;;;;17.80;100784.00;;;;5070908;28;20052;-75
2021/11/07 11:11:44;;;;;;;1919.53;421.77;;;;;17.90;100803.00;;;;5070868;28;20040;-74
2021/11/07 11:14:22;;;;;;;376.83;66.78;;;;;18.00;100799.00;;;;5070331;28;20449;-73
2021/11/07 11:16:58;;;;;;;22.20;5.80;;;;;18.30;100785.00;;;;5069937;28;20103;-75
2021/11/07 11:36:03;;;;;;;1801.30;384.13;;;;;19.90;100749.00;;;;5070105;28;20093;-75
2021/11/07 11:39:38;;;;;;;105.95;66.68;;;;;20.00;100756.00;;;;5051936;28;20056;-75
2021/11/07 11:41:45;;;;;;;19.40;3.95;;;;;19.50;100752.00;;;;5064623;28;20060;-74
2021/11/07 11:44:16;;;;;;;14.40;4.25;;;;;19.40;100736.00;;;;5069891;28;20457;-75
2021/11/07 11:47:31;;;;;;;14.50;2.90;;;;;19.90;100755.00;;;;5069738;28;20036;-75
2021/11/07 11:50:16;;;;;;;11.45;2.75;;;;;19.80;100758.00;;;;5070443;28;20036;-74
2021/11/07 11:53:09;;;;;;;24.08;3.65;;;;;19.60;100758.00;;;;5069692;28;20047;-75
2021/11/07 11:56:05;;;;;;;1381.47;225.93;;;;;19.60;100757.00;;;;5069991;28;20033;-74
2021/11/07 11:58:48;;;;;;;520.42;178.20;;;;;19.50;100773.00;;;;5069241;28;20037;-75
2021/11/07 12:01:23;;;;;;;459.02;41.35;;;;;19.60;100778.00;;;;5069489;28;20051;-74
2021/11/07 12:04:15;;;;;;;1999.90;301.10;;;;;19.70;100766.00;;;;5069546;28;20044;-74
2021/11/07 12:06:47;;;;;;;;;;;;;20.00;100782.00;;;;5069533;28;20037;-74
2021/11/07 12:09:36;;;;;;;557.05;43.13;;;;;19.80;100765.00;;;;5069115;28;19989;-74
2021/11/07 12:12:15;;;;;;;1125.68;242.70;;;;;20.00;100765.00;;;;5069296;28;20499;-76
2021/11/07 12:15:03;;;;;;;18.83;2.85;;;;;19.90;100766.00;;;;5069167;28;20036;-74
2021/11/07 12:17:39;;;;;;;802.25;198.85;;;;;20.00;100758.00;;;;5050987;28;20048;-74
2021/11/07 12:20:35;;;;;;;834.10;371.70;;;;;20.30;100752.00;;;;5068986;28;20044;-75
2021/11/07 12:23:14;;;;;;;1999.90;999.90;;;;;20.10;100752.00;;;;5069213;28;21127;-75
2021/11/07 12:25:46;;;;;;;667.55;108.13;;;;;19.90;100749.00;;;;5069312;28;20048;-76
2021/11/07 12:28:17;;;;;;;12.57;2.75;;;;;20.10;100739.00;;;;5069216;28;20040;-74
2021/11/07 12:31:05;;;;;;;15.30;2.95;;;;;20.40;100729.00;;;;5067499;28;20123;-73
2021/11/07 12:33:52;;;;;;;11.02;2.58;;;;;20.70;100729.00;;;;5069027;28;20627;-76
2021/11/07 12:43:02;;;;;;;15.07;2.35;;;;;22.00;100666.00;;;;5045530;28;20577;-75
2021/11/07 12:45:40;;;;;;;8.38;2.10;;;;;22.00;100682.00;;;;5066756;28;20519;-76
2021/11/07 12:48:13;;;;;;;13.23;2.50;;;;;22.20;100687.00;;;;5049903;28;20056;-75
2021/11/07 12:50:54;;;;;;;14.23;3.15;;;;;22.70;100694.00;;;;5069571;28;20050;-75
2021/11/07 12:53:27;;;;;;;11.05;2.50;;;;;22.00;100680.00;;;;5051092;28;20037;-77
2021/11/07 12:56:07;;;;;;;16.48;3.53;;;;;22.80;100641.00;;;;5068492;28;20041;-75
2021/11/07 12:58:37;;;;;;;21.90;2.90;;;;;22.50;100694.00;;;;5068458;28;20048;-75
2021/11/07 13:01:06;;;;;;;15.18;2.80;;;;;22.80;100624.00;;;;5067580;28;20040;-76
2021/11/07 13:03:36;;;;;;;11.60;2.38;;;;;23.50;100682.00;;;;5068176;28;20094;-75
2021/11/07 13:06:06;;;;;;;9.88;2.40;;;;;23.50;100682.00;;;;5050292;28;20102;-76
2021/11/07 13:08:42;;;;;;;11.00;2.30;;;;;23.20;100657.00;;;;5050080;28;20056;-76
2021/11/07 13:11:20;;;;;;;15.35;2.50;;;;;24.10;100656.00;;;;5067839;28;20487;-76
2021/11/07 13:14:15;;;;;;;11.93;1.83;;;;;24.10;100652.00;;;;5068069;28;20559;-76
2021/11/07 13:17:16;;;;;;;11.52;2.58;;;;;24.80;100672.00;;;;5067110;28;20082;-77
2021/11/07 13:19:56;;;;;;;13.05;2.50;;;;;23.70;100647.00;;;;5067884;28;20052;-77
2021/11/07 13:25:34;;;;;;;13.80;2.92;;;;;24.20;100678.00;;;;5067869;28;20515;-75
2021/11/07 13:31:20;;;;;;;15.10;2.67;;;;;23.60;100674.00;;;;5067736;28;20052;-73
2021/11/07 13:33:50;;;;;;;13.32;2.63;;;;;23.60;100657.00;;;;5067268;28;20530;-75
2021/11/07 13:36:20;;;;;;;10.77;1.98;;;;;23.70;100666.00;;;;5067533;28;20080;-73
2021/11/07 13:39:00;;;;;;;8.23;1.85;;;;;23.50;100676.00;;;;5067310;28;20495;-73
2021/11/07 13:41:30;;;;;;;13.55;2.67;;;;;22.90;100667.00;;;;5067574;28;20036;-75
2021/11/07 13:44:14;;;;;;;14.02;2.65;;;;;23.20;100672.00;;;;5067303;28;20098;-74
2021/11/07 13:47:01;;;;;;;13.10;2.08;;;;;24.10;100672.00;;;;5067666;28;20124;-73
2021/11/07 13:49:31;;;;;;;14.43;2.08;;;;;24.00;100666.00;;;;5067271;28;20538;-73
2021/11/07 13:52:04;;;;;;;14.18;2.92;;;;;24.60;100630.00;;;;5067497;28;20064;-74
2021/11/07 13:54:39;;;;;;;15.23;2.72;;;;;25.50;100606.00;;;;5067759;28;20044;-74
2021/11/07 13:57:09;;;;;;;22.92;2.75;;;;;26.50;100626.00;;;;5067665;28;20041;-74
2021/11/07 13:59:42;;;;;;;12.48;2.60;;;;;26.10;100632.00;;;;5067460;28;20084;-73
2021/11/07 14:02:17;;;;;;;9.45;2.58;;;;;24.40;100657.00;;;;5066926;28;20040;-75
2021/11/07 14:04:56;;;;;;;13.18;2.80;;;;;23.60;100663.00;;;;5066901;28;20468;-77
2021/11/07 14:07:32;;;;;;;14.52;2.50;;;;;23.70;100636.00;;;;5066465;28;20032;-76
2021/11/07 14:10:10;;;;;;;12.95;2.58;;;;;24.40;100625.00;;;;5067908;28;20072;-74
2021/11/07 14:12:46;;;;;;;9.45;2.40;;;;;25.50;100627.00;;;;5067136;28;20041;-74
2021/11/07 14:15:23;;;;;;;10.27;2.35;;;;;24.60;100655.00;;;;5067515;28;20438;-74
2021/11/07 14:18:11;;;;;;;12.93;3.08;;;;;24.30;100656.00;;;;5066806;28;20438;-75
2021/11/07 14:20:46;;;;;;;11.43;2.35;;;;;24.20;100661.00;;;;5067152;28;20425;-76
2021/11/07 14:23:55;;;;;;;11.25;2.47;;;;;23.60;100665.00;;;;5067034;28;20056;-75
2021/11/07 14:26:40;;;;;;;12.00;2.30;;;;;23.60;100654.00;;;;5066290;28;20044;-74